Latest Coastal Weather Observations for Karratha

IDW60701

Issued at 8:12 am WST Monday 25 July 2016 (issued every 10 minutes, with the page automatically refreshed every 10 minutes)

About coastal observations | Map of coastal stations | Coastal observations for WA | Marine services | Other Formats
Station Details ID: 004083 Name: KARRATHA AERO Lat: -20.71 Lon: 116.77 Height: 5.3 m
Data from the previous 72 hours. | See also: Recent months at Karratha
Date/Time
WST
Temp
°C
Wind Pressure Rain since
9am
mm
Weather Cloud Vis
km
Sea
Height
m
Swell
Dir  Spd
kts
Gust
kts
hPa Trend Height
m
Period
s
Dir
25/08:00am 19.8 ENE 5 6 1018.7 - 0.0 - - 10 - - - -
25/07:30am 19.0 E 4 5 1018.5 - 0.0 - - 10 - - - -
25/07:00am 17.8 ENE 6 7 1018.0 - 0.0 - - 10 - - - -
25/06:30am 18.0 ENE 5 6 1017.8 - 0.0 - Partly cloudy 10 - - - -
25/06:00am 18.2 ENE 6 7 1017.4 - 0.0 - Mostly clear 10 - - - -
25/05:30am 18.3 E 6 7 1016.9 - 0.0 - - 10 - - - -
25/05:00am 18.3 E 6 7 1016.7 - 0.0 - Partly cloudy 10 - - - -
25/04:30am 18.1 ENE 7 9 1016.5 - 0.0 - - 10 - - - -
25/04:00am 18.4 ENE 5 6 1016.6 - 0.0 - Partly cloudy 10 - - - -
25/03:30am 19.0 NE 6 7 1016.6 - 0.0 - Partly cloudy 10 - - - -
25/03:00am 19.1 E 6 7 1016.5 - 0.0 - Mostly cloudy 10 - - - -
25/02:30am 19.3 E 5 6 1016.8 - 0.0 - Cloudy 10 - - - -
25/02:00am 19.5 E 7 8 1016.8 - 0.0 - Cloudy 10 - - - -
25/01:30am 19.1 ESE 11 14 1017.0 - 0.0 - Partly cloudy 10 - - - -
25/01:00am 20.0 ENE 8 13 1017.3 - 0.0 - Partly cloudy 10 - - - -
25/12:30am 19.9 ESE 7 10 1017.9 - 0.0 - Cloudy 10 - - - -
25/12:00am 20.4 ESE 8 11 1017.7 - 0.0 - Cloudy 10 - - - -
 
Date/Time
WST
Temp
°C
Wind Pressure Rain since
9am
mm
Weather Cloud Vis
km
Sea
Height
m
Swell
Dir  Spd
kts
Gust
kts
hPa Trend Height
m
Period
s
Dir
24/11:30pm 20.6 SE 9 13 1018.0 - 0.0 - Cloudy 10 - - - -
24/11:00pm 20.7 ESE 8 11 1018.1 - 0.0 - Cloudy 10 - - - -
24/10:30pm 20.9 ESE 9 11 1018.1 - 0.0 - Cloudy 10 - - - -
24/10:00pm 21.1 SE 11 16 1018.1 - 0.0 - Cloudy 10 - - - -
24/09:30pm 21.1 ESE 13 16 1018.0 - 0.0 - Partly cloudy 10 - - - -
24/09:00pm 22.0 ESE 13 16 1017.9 - 0.0 - Mostly cloudy 10 - - - -
24/08:30pm 22.3 SE 12 16 1017.5 - 0.0 - Cloudy 10 - - - -
24/08:00pm 22.4 SE 12 16 1017.3 - 0.0 - Cloudy 10 - - - -
24/07:30pm 22.8 SE 13 17 1017.2 - 0.0 - Cloudy 10 - - - -
24/07:00pm 23.4 SE 14 18 1016.8 - 0.0 - Cloudy 10 - - - -
24/06:30pm 23.6 SE 14 17 1016.5 - 0.0 - Cloudy 10 - - - -
24/06:00pm 23.4 SE 13 16 1016.2 - 0.0 - Cloudy 10 - - - -
24/05:30pm 23.2 ESE 9 11 1016.4 - 0.0 - Partly cloudy 10 - - - -
24/05:00pm 22.8 E 7 10 1016.2 - 0.0 - Partly cloudy 10 - - - -
24/04:30pm 23.1 ENE 6 8 1016.2 - 0.0 - Partly cloudy 10 - - - -
24/04:00pm 23.5 E 10 13 1015.9 - 0.0 - Cloudy 10 - - - -
24/03:30pm 23.5 ESE 15 18 1015.1 - 0.0 - Partly cloudy 10 - - - -
24/03:00pm 23.3 ESE 11 13 1015.5 - 0.0 - Mostly cloudy 10 - - - -
24/02:30pm 23.2 E 11 15 1015.5 - 0.0 - Cloudy 10 - - - -
24/02:00pm 23.1 ESE 12 15 1015.7 - 0.0 - Cloudy 10 - - - -
24/01:30pm 23.0 ESE 16 19 1015.6 - 0.0 - Cloudy 10 - - - -
24/01:00pm 22.5 E 14 19 1016.1 - 0.0 - Partly cloudy 10 - - - -
24/12:30pm 22.3 E 13 16 1016.5 - 0.0 - Partly cloudy 10 - - - -
24/12:00pm 21.6 ESE 14 17 1017.1 - 0.0 - Mostly cloudy 10 - - - -
24/11:30am 21.8 E 15 20 1017.3 - 0.0 - Partly cloudy 10 - - - -
24/11:00am 21.3 E 16 19 1017.7 - 0.0 - Partly cloudy 10 - - - -
24/10:30am 20.7 E 12 15 1018.4 - 0.0 - Partly cloudy 10 - - - -
24/10:00am 21.2 E 11 15 1018.5 - 0.0 - Partly cloudy 10 - - - -
24/09:30am 21.4 E 11 16 1018.2 - 0.0 - Partly cloudy 10 - - - -
24/09:00am 21.7 ESE 13 17 1017.7 - 0.0 - Mostly cloudy 10 - - - -
24/08:30am 21.4 ESE 15 18 1017.2 - 0.0 - Cloudy 10 - - - -
24/08:00am 21.0 E 13 16 1017.0 - 0.0 - Cloudy 10 - - - -
24/07:30am 21.1 E 13 16 1016.2 - 0.0 - Partly cloudy 10 - - - -
24/07:00am 21.2 ENE 10 15 1016.4 - 0.0 - Partly cloudy 10 - - - -
24/06:30am 22.0 ESE 10 14 1016.2 - 0.0 - Partly cloudy 10 - - - -
24/06:00am 21.8 SE 11 13 1015.7 - 0.0 - Mostly clear 10 - - - -
24/05:30am 21.8 ESE 5 8 1015.7 - 0.0 - Partly cloudy 10 - - - -
24/05:00am 22.3 ESE 8 10 1015.4 - 0.0 - Partly cloudy 10 - - - -
24/04:30am 21.9 ESE 6 7 1015.4 - 0.0 - Partly cloudy 10 - - - -
24/04:00am 21.8 SE 8 10 1015.2 - 0.0 - Cloudy 10 - - - -
24/03:30am 21.8 S 6 6 1015.5 - 0.0 - Partly cloudy 10 - - - -
24/03:00am 22.1 CALM 0 0 1015.5 - 0.0 - Mostly cloudy 10 - - - -
24/02:30am 21.9 CALM 0 1 1015.4 - 0.0 - Partly cloudy 10 - - - -
24/02:00am 22.0 CALM 0 0 1015.4 - 0.0 - Cloudy 10 - - - -
24/01:30am 21.9 CALM 0 0 1015.7 - 0.0 - Cloudy 10 - - - -
24/01:00am 21.7 CALM 0 0 1015.6 - 0.0 - Cloudy 10 - - - -
24/12:30am 21.8 NE 4 5 1015.5 - 0.0 - Cloudy 10 - - - -
24/12:00am 21.7 ESE 4 5 1015.4 - 0.0 - Mostly cloudy 10 - - - -
 
Date/Time
WST
Temp
°C
Wind Pressure Rain since
9am
mm
Weather Cloud Vis
km
Sea
Height
m
Swell
Dir  Spd
kts
Gust
kts
hPa Trend Height
m
Period
s
Dir
23/11:30pm 21.6 ESE 3 5 1015.5 - 0.0 - Partly cloudy 10 - - - -
23/11:00pm 21.9 E 3 4 1015.4 - 0.0 - Cloudy 10 - - - -
23/10:30pm 22.3 CALM 0 2 1015.5 - 0.0 - Cloudy 10 - - - -
23/10:00pm 22.1 CALM 0 0 1015.4 - 0.0 - Partly cloudy 10 - - - -
23/09:30pm 22.2 SW 4 4 1015.2 - 0.0 - Partly cloudy 10 - - - -
23/09:00pm 22.3 SW 5 7 1015.1 - 0.0 - Partly cloudy 10 - - - -
23/08:30pm 22.7 WSW 8 9 1015.2 - 0.0 - Partly cloudy 10 - - - -
23/08:00pm 22.9 WSW 9 12 1015.3 - 0.0 - Partly cloudy 10 - - - -
23/07:30pm 23.1 WSW 9 11 1015.2 - 0.0 - - 10 - - - -
23/07:00pm 23.2 W 12 14 1014.9 - 0.0 - - 10 - - - -
23/06:30pm 24.3 W 7 8 1014.5 - 0.0 - - 10 - - - -
23/06:00pm 24.6 WSW 4 6 1014.3 - 0.0 - Partly cloudy 10 - - - -
23/05:30pm 25.0 NW 4 6 1014.0 - 0.0 - - 10 - - - -
23/05:00pm 25.1 CALM 0 2 1013.9 - 0.0 - - 10 - - - -
23/04:30pm 25.4 NE 5 6 1013.8 - 0.0 - - 10 - - - -
23/04:00pm 25.7 NE 7 8 1013.8 - 0.0 - - 10 - - - -
23/03:30pm 25.7 NE 7 8 1014.0 - 0.0 - - 10 - - - -
23/03:00pm 25.7 NE 6 8 1014.3 - 0.0 - - 10 - - - -
23/02:30pm 25.5 NNE 7 9 1014.6 - 0.0 - - 10 - - - -
23/02:00pm 24.9 NNE 8 10 1015.1 - 0.0 - - 10 - - - -
23/01:30pm 24.4 NNE 8 9 1015.4 - 0.0 - - 10 - - - -
23/01:00pm 23.9 NNE 9 11 1015.5 - 0.0 - - 10 - - - -
23/12:30pm 25.1 NE 8 11 1015.9 - 0.0 - - 10 - - - -
23/12:00pm 24.6 NE 9 11 1016.3 - 0.0 - - 10 - - - -
23/11:30am 24.0 NE 8 10 1016.6 - 0.0 - - 10 - - - -
23/11:00am 24.2 NE 8 11 1017.0 - 0.0 - - - - - - -
23/10:30am 23.8 ENE 9 11 1017.3 - 0.0 - - 10 - - - -
23/10:00am 23.0 ENE 8 11 1017.6 - 0.0 - - 10 - - - -
23/09:30am 22.9 ENE 7 9 1017.5 - 0.0 - - 10 - - - -
23/09:00am 21.9 ENE 7 9 1017.4 - 0.0 - Mostly clear 10 - - - -
23/08:30am 21.1 NE 5 6 1017.1 - 0.0 - Partly cloudy 10 - - - -
23/08:00am 20.5 CALM 0 0 1017.2 - 0.0 - Partly cloudy 10 - - - -
23/07:30am 20.5 E 5 7 1016.8 - 0.0 - Cloudy 10 - - - -
23/07:00am 20.2 ENE 5 6 1016.5 - 0.0 - Cloudy 10 - - - -
23/06:30am 20.9 ESE 5 6 1016.0 - 0.0 - Cloudy 10 - - - -
23/06:00am 21.2 ESE 7 9 1015.6 - 0.0 - Cloudy 10 - - - -
23/05:30am 20.1 SE 4 6 1015.5 - 0.0 - Partly cloudy 10 - - - -
23/05:00am 20.1 SSE 5 7 1015.4 - 0.0 - Partly cloudy 10 - - - -
23/04:30am 20.2 S 7 8 1015.4 - 0.0 - Partly cloudy 10 - - - -
23/04:00am 20.6 SSE 5 6 1015.3 - 0.0 - - 10 - - - -
23/03:30am 20.9 SE 5 7 1015.4 - 0.0 - Cloudy 10 - - - -
23/03:00am 20.8 SE 4 5 1015.7 - 0.0 - Cloudy 10 - - - -
23/02:30am 20.4 SE 4 5 1015.9 - 0.0 - Cloudy 10 - - - -
23/02:00am 20.7 SSE 5 6 1016.1 - 0.0 - Cloudy 10 - - - -
23/01:30am 20.8 SSE 7 8 1016.3 - 0.0 - Partly cloudy 10 - - - -
23/01:00am 20.7 S 7 8 1016.4 - 0.0 - Partly cloudy 10 - - - -
23/12:30am 20.7 SSE 6 7 1016.2 - 0.0 - Partly cloudy 10 - - - -
23/12:00am 20.7 S 5 5 1016.1 - 0.0 - Mostly clear 10 - - - -
 
Date/Time
WST
Temp
°C
Wind Pressure Rain since
9am
mm
Weather Cloud Vis
km
Sea
Height
m
Swell
Dir  Spd
kts
Gust
kts
hPa Trend Height
m
Period
s
Dir
22/11:30pm 21.0 SSE 5 6 1016.1 - 0.0 - - 10 - - - -
22/11:00pm 21.2 S 6 6 1016.1 - 0.0 - Partly cloudy 10 - - - -
22/10:30pm 21.3 SSE 4 5 1016.1 - 0.0 - Partly cloudy 10 - - - -
22/10:00pm 21.3 S 4 5 1016.0 - 0.0 - - 10 - - - -
22/09:30pm 21.2 S 4 5 1015.9 - 0.0 - Partly cloudy 10 - - - -
22/09:00pm 21.2 SSW 3 5 1016.0 - 0.0 - Cloudy 10 - - - -
22/08:30pm 21.6 SW 6 7 1015.8 - 0.0 - - 10 - - - -
22/08:00pm 21.8 WSW 6 7 1015.5 - 0.0 - - 10 - - - -
22/07:30pm 22.1 WSW 7 9 1015.2 - 0.0 - - 10 - - - -
22/07:00pm 22.2 WSW 2 7 1015.0 - 0.0 - - 10 - - - -
22/06:30pm 22.5 WSW 6 7 1014.8 - 0.0 - Cloudy 10 - - - -
22/06:00pm 22.5 WSW 6 7 1014.4 - 0.0 - Mostly cloudy 10 - - - -
22/05:30pm 22.7 WSW 6 7 1014.2 - 0.0 - Partly cloudy 10 - - - -
22/05:00pm 23.3 WSW 6 7 1014.1 - 0.0 - Partly cloudy 10 - - - -
22/04:30pm 23.7 WSW 5 6 1014.3 - 0.0 - - 10 - - - -
22/04:00pm 24.9 W 4 5 1014.4 - 0.0 - - 10 - - - -
22/03:30pm 25.4 WNW 1 4 1014.3 - 0.0 - - 10 - - - -
22/03:00pm 25.7 CALM 0 0 1014.2 - 0.0 - - 10 - - - -
22/02:30pm 25.7 CALM 0 0 1014.3 - 0.0 - - 10 - - - -
22/02:00pm 24.6 NNW 3 5 1014.6 - 0.0 - - 10 - - - -
22/01:30pm 24.6 NNW 1 4 1014.8 - 0.0 - - 10 - - - -
22/01:00pm 24.2 NW 4 5 1015.4 - 0.0 - - 10 - - - -
22/12:30pm 23.9 WNW 3 5 1015.7 - 0.0 - - 10 - - - -
22/12:00pm 23.6 CALM 0 0 1016.0 - 0.0 - Mostly clear 10 - - - -
22/11:30am 24.1 CALM 0 3 1016.3 - 0.0 - Partly cloudy 10 - - - -
22/11:00am 23.4 CALM 0 3 1016.8 - 0.0 - Partly cloudy 10 - - - -
22/10:30am 22.6 ENE 1 4 1017.0 - 0.0 - Partly cloudy 10 - - - -
22/10:00am 21.6 ENE 3 5 1017.0 - 0.0 - Cloudy 10 - - - -
22/09:30am 21.4 SE 4 4 1016.8 - 0.0 - Cloudy 10 - - - -
22/09:00am 20.9 SW 5 6 1016.9 - 0.0 - Mostly cloudy 10 - - - -
22/08:30am 20.1 CALM 0 0 1016.5 - 0.0 - Cloudy 10 - - - -

Other Formats:

Comma delimited format used in spreadsheet applications
http://www.bom.gov.au/fwo/IDW60701/IDW60701.95307.axf

JavaScript Object Notation format (JSON) in row-major order
http://www.bom.gov.au/fwo/IDW60701/IDW60701.95307.json